createdAt,value
2019-03-22T00:01:27.141Z,94.3
2019-03-22T00:11:29.056Z,98.6
2019-03-22T00:21:26.849Z,100.4
2019-03-22T00:31:26.936Z,101.6
2019-03-22T00:41:29.365Z,98.1
2019-03-22T00:51:27.052Z,107.9
2019-03-22T01:01:26.739Z,112.7
2019-03-22T01:11:26.632Z,112.6
2019-03-22T01:21:26.893Z,111.4
2019-03-22T01:31:27.774Z,110.9
2019-03-22T01:41:26.607Z,125.7
2019-03-22T01:51:27.968Z,119.1
2019-03-22T02:01:26.943Z,122.4
2019-03-22T02:11:26.988Z,118.0
2019-03-22T02:21:27.037Z,121.8
2019-03-22T02:31:26.686Z,120.0
2019-03-22T02:41:26.417Z,122.2
2019-03-22T02:51:27.621Z,129.4
2019-03-22T03:01:26.486Z,122.7
2019-03-22T03:11:27.496Z,117.9
2019-03-22T03:21:27.325Z,113.1
2019-03-22T03:31:27.659Z,111.8
2019-03-22T03:41:35.231Z,120.0
2019-03-22T03:51:29.013Z,115.9
2019-03-22T04:01:27.317Z,107.6
2019-03-22T04:11:27.321Z,126.4
2019-03-22T04:21:27.921Z,123.1
2019-03-22T04:31:27.437Z,123.0
2019-03-22T04:41:27.725Z,123.3
2019-03-22T04:51:26.694Z,127.1
2019-03-22T05:01:27.774Z,109.9
2019-03-22T05:11:26.461Z,127.6
2019-03-22T05:21:26.630Z,133.6
2019-03-22T05:31:27.731Z,108.6
2019-03-22T05:41:26.307Z,109.3
2019-03-22T05:51:27.215Z,88.3
2019-03-22T06:01:28.812Z,95.5
2019-03-22T06:11:27.938Z,90.1
2019-03-22T06:21:26.667Z,108.3
2019-03-22T06:31:27.383Z,101.2
2019-03-22T06:41:27.583Z,97.9
2019-03-22T06:51:27.280Z,98.2
2019-03-22T07:01:26.967Z,94.1
2019-03-22T07:11:26.640Z,94.5
2019-03-22T07:21:27.396Z,92.2
2019-03-22T07:31:27.001Z,79.1
2019-03-22T07:41:27.030Z,80.5
2019-03-22T07:51:27.680Z,81.1
2019-03-22T08:01:28.225Z,87.9
2019-03-22T08:11:27.488Z,86.9
2019-03-22T08:21:26.779Z,83.1
2019-03-22T08:31:26.559Z,89.7
2019-03-22T08:41:27.539Z,77.2
2019-03-22T08:51:30.550Z,76.1
2019-03-22T09:01:29.053Z,74.0
2019-03-22T09:11:27.268Z,71.8
2019-03-22T09:21:27.838Z,61.5
2019-03-22T09:31:27.196Z,53.4
2019-03-22T09:41:27.464Z,47.5
2019-03-22T09:51:28.006Z,47.3
2019-03-22T10:01:28.007Z,42.6
2019-03-22T10:11:26.678Z,41.8
2019-03-22T10:21:27.171Z,49.3
2019-03-22T10:31:38.094Z,43.2
2019-03-22T10:41:26.922Z,43.7
2019-03-22T10:51:27.225Z,35.6
2019-03-22T11:01:27.180Z,42.0
2019-03-22T11:11:26.992Z,32.3
2019-03-22T11:21:27.146Z,36.3
2019-03-22T11:31:35.935Z,39.1
2019-03-22T11:41:27.187Z,37.6
2019-03-22T11:51:27.320Z,40.3
2019-03-22T12:01:28.241Z,52.3
2019-03-22T12:11:26.961Z,43.5
2019-03-22T12:21:27.797Z,44.4
2019-03-22T12:31:26.414Z,49.4
2019-03-22T12:41:27.234Z,44.0
2019-03-22T12:51:32.920Z,44.6
2019-03-22T13:01:26.479Z,53.4
2019-03-22T13:11:27.310Z,43.4
2019-03-22T13:21:27.285Z,51.4
2019-03-22T13:31:26.993Z,43.0
2019-03-22T13:41:26.514Z,36.8
2019-03-22T13:51:27.933Z,47.3
2019-03-22T14:01:26.872Z,44.9
2019-03-22T14:11:27.941Z,45.6
2019-03-22T14:21:26.689Z,54.8
2019-03-22T14:31:27.293Z,54.7
2019-03-22T14:41:27.351Z,55.7
2019-03-22T14:51:28.713Z,47.5
2019-03-22T15:01:28.448Z,43.3
2019-03-22T15:11:27.255Z,31.4
2019-03-22T15:21:27.541Z,35.4
2019-03-22T15:31:27.181Z,32.3
2019-03-22T15:41:28.369Z,36.0
2019-03-22T15:51:27.498Z,39.4
2019-03-22T16:01:28.352Z,41.7
2019-03-22T16:11:27.225Z,27.3
2019-03-22T16:21:27.241Z,29.1
2019-03-22T16:31:26.946Z,26.1
2019-03-22T16:41:28.313Z,24.3
2019-03-22T16:51:27.014Z,29.1
2019-03-22T17:01:28.157Z,27.3
2019-03-22T17:11:27.380Z,29.2
2019-03-22T17:21:28.145Z,40.3
2019-03-22T17:31:27.015Z,53.3
2019-03-22T17:41:32.335Z,54.6
2019-03-22T17:51:26.952Z,47.6
2019-03-22T18:01:27.116Z,48.2
2019-03-22T18:11:26.929Z,56.2
2019-03-22T18:21:26.864Z,59.8
2019-03-22T18:31:26.865Z,59.5
2019-03-22T18:41:27.364Z,54.1
2019-03-22T18:51:27.289Z,56.9
2019-03-22T19:01:27.294Z,59.0
2019-03-22T19:11:28.147Z,59.5
2019-03-22T19:21:28.936Z,107.1
2019-03-22T19:31:26.730Z,73.7
2019-03-22T19:41:27.816Z,68.1
2019-03-22T19:51:27.507Z,62.6
2019-03-22T20:01:28.279Z,62.8
2019-03-22T20:11:27.307Z,67.8
2019-03-22T20:21:26.954Z,73.5
2019-03-22T20:31:26.941Z,78.8
2019-03-22T20:41:27.730Z,97.8
2019-03-22T20:51:26.535Z,111.7
2019-03-22T21:01:27.261Z,116.2
2019-03-22T21:11:27.431Z,111.8
2019-03-22T21:21:36.914Z,113.6
2019-03-22T21:31:27.357Z,118.2
2019-03-22T21:41:27.317Z,108.9
2019-03-22T21:51:27.298Z,118.6
2019-03-22T22:01:27.273Z,115.4
2019-03-22T22:11:26.806Z,105.6
2019-03-22T22:21:27.500Z,119.0
2019-03-22T22:31:27.109Z,106.3
2019-03-22T22:41:27.690Z,119.8
2019-03-22T22:51:27.391Z,118.3
2019-03-22T23:01:28.214Z,122.2
2019-03-22T23:11:28.056Z,131.6
2019-03-22T23:21:27.044Z,133.8
2019-03-22T23:31:27.788Z,119.1
2019-03-22T23:41:27.163Z,106.1
2019-03-22T23:51:26.518Z,96.9
